Data for 01/11/2009

Time Sea-Level Adjusted Pressure Absolute Pressure Temperature Relative Humidity Dew Point   
(mb) (inHg) (mb) (inHg) (C) (F) (%) (C) (F)
00:05 1026 30.3 855 25.25 1.1 34.1 62 -5.4 22.4
00:10 1026 30.3 855 25.25 0.9 33.7 63 -5.3 22.4
00:15 1026 30.3 855 25.25 0.8 33.5 64 -5.3 22.5
00:20 1026 30.3 855 25.25 0.6 33.2 63 -5.5 22
00:25 1026 30.3 855 25.25 0.7 33.2 63 -5.7 21.8
00:30 1026 30.3 855 25.25 0.6 33.1 62 -5.8 21.5
00:35 1026 30.3 855 25.25 0.6 33.1 60 -6.3 20.6
00:40 1025 30.27 855 25.25 0.6 33.1 60 -6.2 20.8
00:45 1025 30.27 855 25.25 0.5 33 60 -6.4 20.4
00:50 1025 30.27 855 25.25 0.5 32.8 59 -6.6 20.1
00:55 1025 30.27 855 25.25 0.5 32.8 59 -6.6 20.1
01:00 1025 30.27 854 25.22 0.4 32.8 60 -6.5 20.3
01:05 1025 30.27 854 25.22 0.4 32.7 60 -6.5 20.2
01:10 1025 30.27 854 25.22 0.4 32.8 60 -6.5 20.3
01:15 1025 30.27 854 25.22 0.4 32.8 60 -6.5 20.3
01:20 1025 30.27 854 25.22 0.4 32.7 60 -6.6 20.1
01:25 1025 30.27 854 25.22 0.4 32.7 60 -6.5 20.2
01:30 1025 30.27 854 25.22 0.4 32.6 60 -6.5 20.3
01:35 1025 30.27 854 25.22 0.4 32.6 60 -6.5 20.3
01:40 1025 30.27 854 25.22 0.3 32.5 60 -6.5 20.3
01:45 1025 30.27 854 25.22 0.4 32.7 59 -6.7 19.9
01:50 1025 30.27 854 25.22 0.5 32.9 59 -6.6 20.1
01:55 1025 30.27 854 25.22 0.6 33.1 58 -6.7 20
02:00 1025 30.27 854 25.22 0.7 33.2 59 -6.5 20.3
02:05 1025 30.27 854 25.22 0.6 33 59 -6.5 20.3
02:10 1025 30.27 854 25.22 0.5 32.9 59 -6.6 20.1
02:15 1025 30.27 854 25.22 0.5 33 60 -6.4 20.4
02:20 1025 30.27 854 25.22 0.5 32.9 60 -6.5 20.4
02:25 1025 30.27 854 25.22 0.6 33.1 60 -6.2 20.8
02:30 1025 30.27 854 25.22 0.6 33.1 60 -6.3 20.7
02:35 1025 30.27 854 25.22 0.6 33 61 -6.2 20.8
02:40 1025 30.27 854 25.22 0.5 32.9 61 -6.1 21
02:45 1025 30.27 854 25.22 0.6 33 62 -5.8 21.5
02:50 1025 30.27 854 25.22 0.6 33 63 -5.7 21.8
02:55 1025 30.27 854 25.22 0.5 32.9 64 -5.5 22.1
03:00 1025 30.27 854 25.22 0.3 32.6 66 -5.3 22.5
03:05 1025 30.27 854 25.22 0.2 32.3 68 -5.1 22.9
03:10 1025 30.27 854 25.22 0 32 72 -4.4 24
03:15 1025 30.27 854 25.22 -0.3 31.4 77 -3.9 24.9
03:20 1025 30.27 854 25.22 -0.6 30.9 79 -3.8 25.1
03:25 1025 30.27 854 25.22 -0.8 30.6 79 -3.9 24.9
03:30 1025 30.27 854 25.22 -0.9 30.5 80 -4 24.9
03:35 1025 30.27 854 25.22 -0.8 30.6 79 -3.9 24.9
03:40 1025 30.27 854 25.22 -0.9 30.4 81 -3.7 25.3
03:45 1025 30.27 854 25.22 -1.1 29.9 83 -3.7 25.4
03:50 1024 30.24 854 25.22 -1.4 29.6 84 -3.7 25.4
03:55 1024 30.24 854 25.22 -1.5 29.4 85 -3.7 25.4
04:00 1024 30.24 854 25.22 -1.5 29.3 86 -3.6 25.5
04:05 1025 30.27 854 25.22 -1.5 29.3 86 -3.5 25.8
04:10 1025 30.27 854 25.22 -1.1 29.9 84 -3.5 25.8
04:15 1025 30.27 854 25.22 -1 30.3 84 -3.4 25.9
04:20 1025 30.27 854 25.22 -0.8 30.6 84 -3.2 26.2
04:25 1025 30.27 854 25.22 -0.8 30.6 84 -3.1 26.3
04:30 1025 30.27 854 25.22 -1 30.3 86 -3 26.6
04:35 1025 30.27 854 25.22 -1 30.1 89 -2.6 27.3
04:40 1025 30.27 854 25.22 -1.2 29.9 91 -2.4 27.7
04:45 1025 30.27 854 25.22 -1.2 29.8 92 -2.3 27.9
04:50 1025 30.27 854 25.22 -1.3 29.7 93 -2.3 27.9
04:55 1025 30.27 854 25.22 -1.4 29.5 92 -2.5 27.6
05:00 1025 30.27 854 25.22 -1.7 29 94 -2.6 27.3
05:05 1024 30.24 854 25.22 -2 28.5 94 -2.8 27
05:10 1024 30.24 853 25.19 -2 28.5 94 -2.8 27
05:15 1024 30.24 853 25.19 -2.1 28.2 95 -2.8 26.9
05:20 1024 30.24 853 25.19 -2.1 28.2 95 -2.8 27
05:25 1024 30.24 853 25.19 -2 28.3 96 -2.6 27.2
05:30 1024 30.24 853 25.19 -2.1 28.3 96 -2.7 27.2
05:35 1024 30.24 853 25.19 -2.1 28.2 95 -2.8 27
05:40 1024 30.24 853 25.19 -2.2 28.1 96 -2.7 27.2
05:45 1024 30.24 853 25.19 -1.9 28.5 96 -2.6 27.4
05:50 1024 30.24 853 25.19 -1.8 28.7 95 -2.5 27.6
05:55 1024 30.24 853 25.19 -1.7 28.9 95 -2.4 27.6
06:00 1024 30.24 853 25.19 -1.7 28.9 96 -2.4 27.7
06:05 1024 30.24 853 25.19 -1.8 28.8 96 -2.4 27.7
06:10 1024 30.24 853 25.19 -1.8 28.8 95 -2.4 27.6
06:15 1024 30.24 853 25.19 -2 28.4 96 -2.6 27.4
06:20 1024 30.24 853 25.19 -2.2 28 97 -2.7 27.2
06:25 1024 30.24 853 25.19 -2.2 28 97 -2.6 27.3
06:30 1024 30.24 853 25.19 -2.3 27.9 98 -2.6 27.4
06:35 1024 30.24 853 25.19 -2.1 28.1 98 -2.4 27.6
06:40 1024 30.24 853 25.19 -2 28.4 98 -2.3 27.8
06:45 1024 30.24 853 25.19 -1.9 28.6 98 -2.2 28.1
06:50 1024 30.24 853 25.19 -1.7 29 97 -2 28.3
06:55 1024 30.24 853 25.19 -1.5 29.3 97 -2 28.5
07:00 1024 30.24 853 25.19 -1.3 29.6 96 -1.9 28.6
07:05 1024 30.24 853 25.19 -1.2 29.8 96 -1.8 28.7
07:10 1024 30.24 853 25.19 -1.1 30 95 -1.8 28.7
07:15 1024 30.24 853 25.19 -1.1 30 95 -1.9 28.7
07:20 1024 30.24 853 25.19 -1 30.2 93 -2.1 28.3
07:25 1024 30.24 853 25.19 -0.9 30.3 92 -2.1 28.2
07:30 1024 30.24 853 25.19 -0.8 30.6 90 -2.2 28
07:35 1024 30.24 853 25.19 -0.7 30.8 90 -2.2 28.1
07:40 1024 30.24 853 25.19 -0.7 30.8 87 -2.5 27.4
07:45 1024 30.24 854 25.22 -0.6 30.9 86 -2.6 27.3
07:50 1025 30.27 854 25.22 -0.6 30.9 88 -2.4 27.7
07:55 1025 30.27 854 25.22 -0.8 30.6 90 -2.2 28
08:00 1024 30.24 854 25.22 -1.3 29.7 91 -2.6 27.4
08:05 1024 30.24 853 25.19 -1.2 29.8 85 -3.4 25.9
08:10 1024 30.24 853 25.19 -1 30.1 87 -2.9 26.8
08:15 1024 30.24 853 25.19 -1 30.2 85 -3.2 26.3
08:20 1024 30.24 853 25.19 -0.7 30.7 84 -3.1 26.4
08:25 1024 30.24 853 25.19 -0.6 30.9 83 -3.2 26.2
08:30 1024 30.24 853 25.19 -0.4 31.2 81 -3.3 26.1
08:35 1024 30.24 853 25.19 -0.2 31.7 78 -3.5 25.7
08:40 1024 30.24 853 25.19 0.1 32.1 76 -3.7 25.4
08:45 1024 30.24 853 25.19 0.3 32.5 73 -4 24.8
08:50 1024 30.24 853 25.19 0.6 33 71 -4.2 24.5
08:55 1024 30.24 853 25.19 0.7 33.3 71 -4 24.8
09:00 1024 30.24 853 25.19 0.7 33.2 72 -3.8 25.2
09:05 1024 30.24 853 25.19 0.8 33.5 73 -3.5 25.6
09:10 1024 30.24 853 25.19 0.8 33.5 70 -4.1 24.7
09:15 1024 30.24 853 25.19 0.9 33.6 70 -4 24.8
09:20 1024 30.24 853 25.19 1.1 33.9 69 -3.9 25
09:25 1024 30.24 853 25.19 1.2 34.2 69 -3.8 25.1
09:30 1024 30.24 853 25.19 1.4 34.5 68 -3.8 25.1
09:35 1024 30.24 853 25.19 1.6 34.9 71 -3.1 26.5
09:40 1024 30.24 853 25.19 1.8 35.2 67 -3.8 25.2
09:45 1024 30.24 853 25.19 2.3 36.1 67 -3.1 26.3
09:50 1024 30.24 853 25.19 2.2 35.9 67 -3.2 26.2
09:55 1024 30.24 853 25.19 2.3 36.1 66 -3.5 25.8
10:00 1024 30.24 853 25.19 2.4 36.4 67 -3.1 26.3
10:05 1024 30.24 853 25.19 2.1 35.8 69 -2.9 26.7
10:10 1024 30.24 853 25.19 1.9 35.4 67 -3.5 25.7
10:15 1024 30.24 853 25.19 2 35.6 68 -3.3 26
10:20 1024 30.24 853 25.19 2.2 36 66 -3.5 25.6
10:25 1024 30.24 853 25.19 2.3 36.2 67 -3.2 26.3
10:30 1024 30.24 853 25.19 2.3 36.2 67 -3.1 26.4
10:35 1024 30.24 853 25.19 2.5 36.4 66 -3.2 26.3
10:40 1024 30.24 853 25.19 2.7 36.8 63 -3.6 25.6
10:45 1024 30.24 853 25.19 2.8 37 63 -3.6 25.5
10:50 1024 30.24 853 25.19 2.9 37.2 63 -3.6 25.5
10:55 1024 30.24 853 25.19 3 37.4 61 -3.7 25.3
11:00 1024 30.24 853 25.19 3.2 37.7 61 -3.6 25.6
11:05 1024 30.24 853 25.19 3.3 38 61 -3.6 25.6
11:10 1024 30.24 853 25.19 3.4 38.1 59 -3.8 25.1
11:15 1024 30.24 853 25.19 3.4 38.2 61 -3.5 25.7
11:20 1024 30.24 853 25.19 3.4 38 58 -4.1 24.5
11:25 1024 30.24 853 25.19 3.4 38.1 59 -3.9 25.1
11:30 1024 30.24 853 25.19 3.3 38 60 -3.6 25.5
11:35 1024 30.24 853 25.19 3.3 37.9 58 -4.2 24.4
11:40 1024 30.24 853 25.19 3.3 38 60 -3.8 25.2
11:45 1024 30.24 853 25.19 3.3 37.9 59 -4 24.9
11:50 1024 30.24 853 25.19 3.3 37.9 60 -3.8 25.1
11:55 1024 30.24 853 25.19 3.3 38 60 -3.8 25.1
12:00 1024 30.24 853 25.19 3.3 37.9 60 -3.7 25.3
12:05 1024 30.24 853 25.19 3.3 38 60 -3.6 25.5
12:10 1024 30.24 853 25.19 3.4 38.1 60 -3.7 25.4
12:15 1024 30.24 853 25.19 3.6 38.5 57 -4.2 24.4
12:20 1024 30.24 853 25.19 3.6 38.4 59 -3.8 25.2
12:25 1024 30.24 853 25.19 3.7 38.6 57 -4 24.7
12:30 1024 30.24 853 25.19 3.9 39 54 -4.6 23.8
12:35 1023 30.21 853 25.19 3.8 38.8 56 -4.1 24.6
12:40 1023 30.21 853 25.19 4.1 39.4 55 -4 24.8
12:45 1023 30.21 853 25.19 4.2 39.6 53 -4.4 24.1
12:50 1023 30.21 853 25.19 4.1 39.5 55 -4.2 24.4
12:55 1023 30.21 852 25.16 4 39.2 56 -4 24.9
13:00 1023 30.21 852 25.16 3.7 38.7 56 -4.3 24.2
13:05 1023 30.21 852 25.16 3.8 38.9 57 -3.9 25
13:10 1023 30.21 852 25.16 3.7 38.7 58 -3.8 25.2
13:15 1023 30.21 852 25.16 3.8 38.8 56 -4.2 24.5
13:20 1023 30.21 852 25.16 3.7 38.6 56 -4.2 24.4
13:25 1023 30.21 853 25.19 3.7 38.7 57 -3.9 25
13:30 1023 30.21 852 25.16 3.9 39 57 -3.9 25
13:35 1023 30.21 853 25.19 4 39.2 56 -4 24.9
13:40 1023 30.21 852 25.16 4.1 39.3 58 -3.6 25.6
13:45 1023 30.21 852 25.16 4.1 39.3 57 -3.7 25.4
13:50 1023 30.21 852 25.16 4.1 39.4 58 -3.5 25.8
13:55 1023 30.21 852 25.16 4 39.2 60 -3.1 26.4
14:00 1023 30.21 853 25.19 3.8 38.8 60 -3.2 26.3
14:05 1023 30.21 853 25.19 3.5 38.3 61 -3.2 26.2
14:10 1023 30.21 853 25.19 3.4 38.1 61 -3.4 25.9
14:15 1023 30.21 852 25.16 3.2 37.8 62 -3.3 26.1
14:20 1023 30.21 852 25.16 3.1 37.6 63 -3.2 26.2
14:25 1023 30.21 853 25.19 3 37.5 63 -3.3 26
14:30 1023 30.21 853 25.19 3.1 37.5 63 -3.3 26
14:35 1024 30.24 853 25.19 3.1 37.5 65 -2.9 26.8
14:40 1024 30.24 853 25.19 2.9 37.3 65 -3 26.5
14:45 1023 30.21 853 25.19 2.9 37.2 63 -3.4 25.8
14:50 1023 30.21 853 25.19 3 37.4 61 -3.7 25.3
14:55 1023 30.21 853 25.19 3.3 37.9 60 -3.7 25.4
15:00 1023 30.21 853 25.19 3.5 38.3 59 -3.7 25.3
15:05 1023 30.21 853 25.19 3.6 38.5 59 -3.7 25.3
15:10 1023 30.21 853 25.19 3.6 38.4 60 -3.5 25.7
15:15 1023 30.21 853 25.19 3.6 38.5 60 -3.5 25.8
15:20 1023 30.21 853 25.19 3.5 38.3 60 -3.5 25.7
15:25 1023 30.21 853 25.19 3.6 38.4 59 -3.7 25.4
15:30 1023 30.21 853 25.19 3.8 38.8 58 -3.7 25.3
15:35 1023 30.21 853 25.19 4 39.1 57 -3.8 25.2
15:40 1023 30.21 853 25.19 4.1 39.4 57 -3.7 25.3
15:45 1023 30.21 853 25.19 4.2 39.6 56 -3.8 25.2
15:50 1023 30.21 853 25.19 4.3 39.7 57 -3.6 25.6
15:55 1023 30.21 853 25.19 4.3 39.7 57 -3.6 25.5
16:00 1023 30.21 853 25.19 4.2 39.6 57 -3.6 25.6
16:05 1023 30.21 853 25.19 4.2 39.6 56 -3.8 25.1
16:10 1023 30.21 852 25.16 4.2 39.6 57 -3.5 25.8
16:15 1023 30.21 852 25.16 4.2 39.5 56 -3.8 25.1
16:20 1023 30.21 852 25.16 4.1 39.5 57 -3.5 25.6
16:25 1023 30.21 852 25.16 4.1 39.4 57 -3.6 25.6
16:30 1023 30.21 852 25.16 4.1 39.4 57 -3.6 25.5
16:35 1023 30.21 852 25.16 4.2 39.5 55 -4.1 24.6
16:40 1023 30.21 852 25.16 4.4 40 55 -3.7 25.3
16:45 1023 30.21 852 25.16 4.4 39.8 57 -3.4 25.9
16:50 1023 30.21 852 25.16 4.4 39.8 57 -3.3 26
16:55 1023 30.21 852 25.16 4.3 39.8 59 -3 26.6
17:00 1023 30.21 852 25.16 4.2 39.6 59 -3 26.5
17:05 1023 30.21 852 25.16 4.2 39.5 58 -3.3 26.1
17:10 1023 30.21 852 25.16 4.2 39.5 58 -3.3 26
17:15 1023 30.21 852 25.16 4.2 39.6 57 -3.6 25.4
17:20 1023 30.21 852 25.16 4.5 40 55 -3.8 25.2
17:25 1023 30.21 852 25.16 4.5 40.2 56 -3.5 25.6
17:30 1023 30.21 852 25.16 4.6 40.2 57 -3.2 26.2
17:35 1023 30.21 852 25.16 4.4 39.9 58 -3.2 26.2
17:40 1023 30.21 852 25.16 4.2 39.6 57 -3.4 25.9
17:45 1023 30.21 852 25.16 4.3 39.7 57 -3.4 25.9
17:50 1023 30.21 852 25.16 4.4 39.8 56 -3.7 25.4
17:55 1023 30.21 852 25.16 4.4 39.9 57 -3.4 25.9
18:00 1023 30.21 852 25.16 4.3 39.7 57 -3.4 25.9
18:05 1023 30.21 852 25.16 4.2 39.6 60 -2.9 26.7
18:10 1023 30.21 852 25.16 4 39.3 60 -2.9 26.7
18:15 1023 30.21 852 25.16 3.8 38.8 60 -3.3 26.1
18:20 1023 30.21 852 25.16 3.9 39 59 -3.5 25.7
18:25 1022 30.18 852 25.16 4.1 39.4 58 -3.4 26
18:30 1022 30.18 852 25.16 4.1 39.3 58 -3.4 25.9
18:35 1022 30.18 852 25.16 4 39.3 59 -3.2 26.2
18:40 1022 30.18 852 25.16 3.9 39.1 59 -3.3 26
18:45 1022 30.18 852 25.16 3.9 39.1 58 -3.6 25.5
18:50 1022 30.18 852 25.16 4 39.3 58 -3.5 25.7
18:55 1022 30.18 852 25.16 4 39.2 58 -3.6 25.6
19:00 1022 30.18 852 25.16 3.9 39.1 57 -3.7 25.3
19:05 1023 30.21 852 25.16 3.9 39 58 -3.7 25.4
19:10 1023 30.21 852 25.16 3.9 39 58 -3.7 25.3
19:15 1023 30.21 852 25.16 3.9 39 58 -3.7 25.3
19:20 1023 30.21 852 25.16 3.9 38.9 58 -3.6 25.5
19:25 1023 30.21 852 25.16 3.8 38.8 58 -3.7 25.4
19:30 1023 30.21 852 25.16 3.7 38.7 59 -3.6 25.5
19:35 1023 30.21 852 25.16 3.7 38.6 59 -3.7 25.4
19:40 1022 30.18 852 25.16 3.6 38.4 59 -3.6 25.5
19:45 1023 30.21 852 25.16 3.4 38.2 60 -3.5 25.6
19:50 1023 30.21 852 25.16 3.4 38 60 -3.7 25.4
19:55 1023 30.21 852 25.16 3.2 37.8 61 -3.6 25.5
20:00 1022 30.18 852 25.16 3.2 37.7 60 -3.7 25.3
20:05 1023 30.21 852 25.16 3.2 37.8 61 -3.6 25.6
20:10 1023 30.21 852 25.16 3.2 37.7 61 -3.6 25.4
20:15 1023 30.21 852 25.16 3.1 37.6 61 -3.7 25.4
20:20 1023 30.21 852 25.16 3 37.5 62 -3.6 25.5
20:25 1023 30.21 852 25.16 2.9 37.3 63 -3.5 25.8
20:30 1023 30.21 852 25.16 2.9 37.3 62 -3.7 25.4
20:35 1023 30.21 852 25.16 2.9 37.2 65 -3.1 26.3
20:40 1023 30.21 852 25.16 2.7 36.8 63 -3.7 25.3
20:45 1023 30.21 852 25.16 2.9 37.1 62 -3.8 25.2
20:50 1023 30.21 852 25.16 2.9 37.2 62 -3.7 25.4
20:55 1023 30.21 852 25.16 3 37.4 61 -3.7 25.4
21:00 1023 30.21 852 25.16 2.9 37.2 62 -3.7 25.4
21:05 1023 30.21 852 25.16 2.8 37.1 62 -3.7 25.4
21:10 1023 30.21 852 25.16 2.9 37.2 61 -3.8 25.1
21:15 1023 30.21 852 25.16 2.9 37.2 61 -3.8 25.1
21:20 1023 30.21 853 25.19 2.9 37.1 61 -3.9 25
21:25 1023 30.21 853 25.19 2.8 37.1 61 -4.1 24.7
21:30 1024 30.24 853 25.19 2.8 37 61 -4.1 24.7
21:35 1024 30.24 853 25.19 2.8 37 60 -4.3 24.3
21:40 1024 30.24 853 25.19 2.8 37.1 60 -4.2 24.4
21:45 1024 30.24 853 25.19 2.8 37.1 59 -4.4 24.1
21:50 1024 30.24 853 25.19 2.9 37.1 57 -4.9 23.3
21:55 1024 30.24 853 25.19 3.1 37.6 56 -4.9 23.2
22:00 1023 30.21 853 25.19 3.2 37.8 55 -4.9 23.2
22:05 1024 30.24 853 25.19 3.3 37.9 55 -4.9 23.1
22:10 1024 30.24 853 25.19 3.3 37.9 55 -4.9 23.3
22:15 1024 30.24 853 25.19 3.3 37.9 55 -5 23
22:20 1024 30.24 853 25.19 3.3 38 55 -5 23
22:25 1024 30.24 853 25.19 3.3 38 55 -5 23.1
22:30 1024 30.24 853 25.19 3.3 38 55 -4.9 23.3
22:35 1024 30.24 853 25.19 3.3 38 55 -5 23.1
22:40 1024 30.24 853 25.19 3.3 38 55 -4.7 23.5
22:45 1024 30.24 853 25.19 3.3 37.9 57 -4.6 23.8
22:50 1024 30.24 853 25.19 3.2 37.8 56 -4.8 23.4
22:55 1024 30.24 853 25.19 3.3 37.9 55 -4.8 23.3
23:00 1024 30.24 853 25.19 3.3 38 57 -4.5 24
23:05 1024 30.24 853 25.19 3.2 37.8 58 -4.3 24.3
23:10 1024 30.24 853 25.19 3.1 37.6 58 -4.4 24.1
23:15 1024 30.24 853 25.19 3 37.5 58 -4.4 24.1
23:20 1024 30.24 853 25.19 3 37.4 58 -4.5 23.9
23:25 1024 30.24 853 25.19 2.9 37.2 59 -4.3 24.2
23:30 1024 30.24 854 25.22 2.8 37 60 -4.2 24.5
23:35 1024 30.24 854 25.22 2.6 36.7 61 -4 24.7
23:40 1024 30.24 854 25.22 2.6 36.6 60 -4.5 24
23:45 1024 30.24 854 25.22 2.6 36.6 59 -4.5 23.8
23:50 1024 30.24 854 25.22 2.5 36.6 60 -4.5 23.9
23:55 1024 30.24 854 25.22 2.5 36.4 60 -4.6 23.8
24:00 1024 30.24 854 25.22 2.3 36.2 61 -4.5 23.9